Rice, Kansas
Current Conditions -  °F | °C
As of 1:55 PM on Wednesday 26 Nov 2014 (Local Time) from KCNK Reporting Station
Few Clouds Few Clouds  
Wind Chill: 24°   Ceiling: Unl
Heat Index: 36°   Visibility: 10mi
Dew Point: 22°   Wind: 23mph
Humidity: 57%   Direction: 350°N
Pressure: 30.2"   Gusts: 36mph
Location:  39.4716°N, 97.7305°W
Report Text: KCNK 261955Z AUTO 35020G31KT 10SM FEW031 02/M06 A3020 RMK AO2 PK WND 34031/1946 SLP234 T00221056
Loading
Personal Weather Stations






























Interactive Weather Map New forecast layout! Learn more

10-Day Weather Forecast

Advertisements
Track Severe Weather on mobile